Main page
METAR-TAF:

METAR-TAF

Airports :

Skyhaven Airport

Rochester, New Hampshire, United States

latitude: 43-16-41N, longitude: 070-55-20W, elevation: 321 ft

Current weather observation

The report was made 24 minutes ago, at 03:51 UTC
Calm wind
Temperature 39°F
Humidity 52%
Pressure 29.93 in. Hg
Visibility: 10 miles
Clear sky

METAR: KDAW 250351Z AUTO 00000KT 10SM CLR 04/M05 A2993 RMK AO2 SLP133 T00441050 $

Time: 23:15 (04:15 UTC)


TAF: missing

Weather observations and forecasts of more than 4000 airports (METAR and TAF reports).

The available stations are represented by yellow and red dots on the map.

Hover mouse over dot to see the name of the station.

Then click to see weather observations and forecasts.

To change the map : click on the green buttons with a black cross to zoom in, on the green button with a dash to zoom out, or on the green arrows for adjacent maps.


METAR-TAF: